Time;durP1;ratioP1;P1;durP2;ratioP2;P2;SDS_P1;SDS_P2;PMS_P1;PMS_P2;Temp;Humidity;BMP_temperature;BMP_pressure;BME280_temperature;BME280_humidity;BME280_pressure;Samples;Min_cycle;Max_cycle;Signal;HPM_P1;HPM_P2
2023/01/24 00:01:13;;;;;;;13.80;10.20;;;;;;;;;;5114524;27;20462;-81
2023/01/24 00:03:40;;;;;;;14.23;10.68;;;;;;;;;;5113068;27;20414;-83
2023/01/24 00:06:06;;;;;;;14.32;10.90;;;;;;;;;;5113364;27;20092;-82
2023/01/24 00:08:32;;;;;;;16.50;11.20;;;;;;;;;;5106865;27;20028;-83
2023/01/24 00:10:59;;;;;;;13.27;10.35;;;;;;;;;;5116321;27;20383;-83
2023/01/24 00:13:25;;;;;;;13.77;10.70;;;;;;;;;;5115961;27;20084;-83
2023/01/24 00:15:51;;;;;;;15.25;10.45;;;;;;;;;;5099113;27;20031;-83
2023/01/24 00:18:17;;;;;;;17.73;10.63;;;;;;;;;;5105023;27;20031;-82
2023/01/24 00:20:43;;;;;;;15.80;10.38;;;;;;;;;;5108010;27;20027;-82
2023/01/24 00:23:09;;;;;;;15.07;10.50;;;;;;;;;;5112030;27;20023;-82
2023/01/24 00:25:35;;;;;;;18.70;11.00;;;;;;;;;;5121174;27;20031;-84
2023/01/24 00:28:01;;;;;;;20.42;11.02;;;;;;;;;;5109377;27;20046;-82
2023/01/24 00:30:27;;;;;;;14.35;10.23;;;;;;;;;;5116056;27;20043;-81
2023/01/24 00:32:53;;;;;;;17.15;11.77;;;;;;;;;;5110327;27;20024;-83
2023/01/24 00:35:20;;;;;;;19.00;11.90;;;;;;;;;;5117187;27;20023;-82
2023/01/24 00:37:46;;;;;;;15.35;11.13;;;;;;;;;;5096876;28;20030;-83
2023/01/24 00:40:12;;;;;;;16.80;11.60;;;;;;;;;;5114195;27;20084;-83
2023/01/24 00:42:38;;;;;;;16.67;11.40;;;;;;;;;;5093207;28;20039;-83
2023/01/24 00:45:04;;;;;;;14.75;11.50;;;;;;;;;;5118658;27;20038;-82
2023/01/24 00:47:30;;;;;;;17.83;11.30;;;;;;;;;;5110435;28;20031;-81
2023/01/24 00:49:56;;;;;;;14.98;11.07;;;;;;;;;;5118865;28;20038;-83
2023/01/24 00:52:22;;;;;;;19.70;11.63;;;;;;;;;;5114075;28;20080;-82
2023/01/24 00:54:48;;;;;;;17.75;12.13;;;;;;;;;;5116777;28;20372;-82
2023/01/24 00:57:14;;;;;;;19.40;12.25;;;;;;;;;;5106005;28;20483;-83
2023/01/24 00:59:41;;;;;;;20.70;12.68;;;;;;;;;;5114619;28;20445;-82
2023/01/24 01:02:07;;;;;;;16.30;12.07;;;;;;;;;;5111248;28;20126;-83
2023/01/24 01:04:33;;;;;;;19.45;11.23;;;;;;;;;;5109244;28;20054;-83
2023/01/24 01:06:59;;;;;;;16.77;11.43;;;;;;;;;;5112170;28;20031;-83
2023/01/24 01:09:25;;;;;;;17.15;12.52;;;;;;;;;;5113230;28;20031;-83
2023/01/24 01:11:51;;;;;;;16.55;12.27;;;;;;;;;;5099231;28;20031;-84
2023/01/24 01:14:17;;;;;;;17.70;12.05;;;;;;;;;;5109536;28;20108;-83
2023/01/24 01:16:43;;;;;;;16.42;11.02;;;;;;;;;;5108104;28;20036;-84
2023/01/24 01:19:09;;;;;;;16.85;11.77;;;;;;;;;;5120835;28;20027;-83
2023/01/24 01:21:35;;;;;;;17.30;12.60;;;;;;;;;;5111759;28;20035;-82
2023/01/24 01:24:01;;;;;;;18.90;12.75;;;;;;;;;;5112280;28;20035;-83
2023/01/24 01:26:28;;;;;;;16.63;12.05;;;;;;;;;;5095943;28;20119;-81
2023/01/24 01:28:54;;;;;;;18.88;12.90;;;;;;;;;;5116220;28;20039;-83
2023/01/24 01:31:20;;;;;;;19.10;12.75;;;;;;;;;;5108809;28;20036;-82
2023/01/24 01:33:46;;;;;;;17.77;12.18;;;;;;;;;;5094825;28;20887;-85
2023/01/24 01:36:12;;;;;;;19.42;12.13;;;;;;;;;;5115785;28;20039;-81
2023/01/24 01:38:38;;;;;;;18.98;12.23;;;;;;;;;;5111311;28;20049;-81
2023/01/24 01:41:05;;;;;;;17.35;12.38;;;;;;;;;;5115210;28;20028;-82
2023/01/24 01:43:31;;;;;;;18.70;11.80;;;;;;;;;;5115406;28;20088;-82
2023/01/24 01:46:08;;;;;;;19.45;12.65;;;;;;;;;;5115073;28;20089;-82
2023/01/24 01:48:34;;;;;;;17.90;12.63;;;;;;;;;;5112957;28;20088;-82
2023/01/24 01:51:16;;;;;;;18.85;13.15;;;;;;;;;;5110998;28;20648;-82
2023/01/24 01:53:47;;;;;;;18.38;12.75;;;;;;;;;;5109007;28;20028;-81
2023/01/24 01:56:23;;;;;;;18.58;12.45;;;;;;;;;;5115315;27;20043;-82
2023/01/24 01:58:49;;;;;;;20.05;12.68;;;;;;;;;;5110960;27;20136;-82
2023/01/24 02:01:15;;;;;;;21.00;13.02;;;;;;;;;;5111170;27;20034;-81
2023/01/24 02:03:44;;;;;;;19.17;12.18;;;;;;;;;;5117469;27;20027;-82
2023/01/24 02:06:20;;;;;;;19.00;12.77;;;;;;;;;;5109154;27;20027;-82
2023/01/24 02:08:47;;;;;;;18.70;12.65;;;;;;;;;;5113465;27;20015;-84
2023/01/24 02:16:44;;;;;;;18.00;12.82;;;;;;;;;;5120610;27;20033;-82
2023/01/24 02:19:16;;;;;;;19.40;12.88;;;;;;;;;;5113844;27;20458;-85
2023/01/24 02:21:42;;;;;;;18.98;12.30;;;;;;;;;;5117464;27;20031;-82
2023/01/24 02:24:18;;;;;;;17.42;11.98;;;;;;;;;;5117925;27;20028;-82
2023/01/24 02:26:44;;;;;;;17.42;12.30;;;;;;;;;;5116932;27;20031;-82
2023/01/24 02:29:12;;;;;;;18.73;12.45;;;;;;;;;;5109425;27;20027;-81
2023/01/24 02:32:16;;;;;;;16.77;11.95;;;;;;;;;;5115822;27;20061;-81
2023/01/24 02:34:42;;;;;;;17.92;12.38;;;;;;;;;;5022911;28;20114;-85
2023/01/24 02:37:11;;;;;;;18.50;11.98;;;;;;;;;;5084901;27;20467;-84
2023/01/24 02:39:40;;;;;;;17.42;11.88;;;;;;;;;;5115490;27;20071;-81
2023/01/24 02:42:08;;;;;;;16.30;12.13;;;;;;;;;;5117541;27;20039;-82
2023/01/24 02:44:34;;;;;;;18.50;13.13;;;;;;;;;;5110198;27;20080;-83
2023/01/24 02:47:00;;;;;;;16.27;12.05;;;;;;;;;;5109857;27;20028;-83
2023/01/24 02:49:26;;;;;;;18.25;12.18;;;;;;;;;;5098827;27;20051;-81
2023/01/24 02:54:39;;;;;;;16.35;11.20;;;;;;;;;;5109975;27;20051;-84
2023/01/24 02:59:49;;;;;;;23.30;12.15;;;;;;;;;;5113765;27;20063;-84
2023/01/24 03:02:15;;;;;;;17.50;12.55;;;;;;;;;;5119278;27;20035;-82
2023/01/24 03:04:41;;;;;;;20.80;12.35;;;;;;;;;;5114498;27;20467;-83
2023/01/24 03:07:08;;;;;;;17.77;12.50;;;;;;;;;;5116620;27;20479;-85
2023/01/24 03:09:38;;;;;;;18.90;11.82;;;;;;;;;;5112128;27;20027;-84
2023/01/24 03:36:52;;;;;;;16.15;11.75;;;;;;;;;;5112424;27;20112;-82
2023/01/24 03:42:03;;;;;;;15.77;10.77;;;;;;;;;;5116640;27;20075;-83
2023/01/24 03:44:29;;;;;;;16.77;11.52;;;;;;;;;;5110221;27;20056;-82
2023/01/24 03:46:55;;;;;;;17.52;11.30;;;;;;;;;;5095091;27;20165;-86
2023/01/24 03:52:26;;;;;;;16.40;10.77;;;;;;;;;;5105103;27;20050;-83
2023/01/24 03:54:53;;;;;;;16.40;11.00;;;;;;;;;;5110727;27;20027;-82
2023/01/24 03:57:19;;;;;;;15.20;10.80;;;;;;;;;;5116092;27;20027;-82
2023/01/24 03:59:45;;;;;;;13.80;10.20;;;;;;;;;;5100302;27;20165;-85
2023/01/24 04:02:11;;;;;;;15.27;11.20;;;;;;;;;;5113720;27;20100;-83
2023/01/24 04:07:21;;;;;;;13.82;10.48;;;;;;;;;;5108211;27;20066;-83
2023/01/24 04:09:47;;;;;;;15.27;10.07;;;;;;;;;;5115270;27;20040;-84
2023/01/24 04:12:17;;;;;;;15.23;10.43;;;;;;;;;;5116671;27;20031;-82
2023/01/24 04:14:43;;;;;;;14.95;11.70;;;;;;;;;;5111843;27;20027;-82
2023/01/24 04:17:10;;;;;;;12.93;9.55;;;;;;;;;;5115020;27;20023;-84
2023/01/24 04:19:36;;;;;;;13.00;8.35;;;;;;;;;;5108765;27;20411;-82
2023/01/24 04:22:02;;;;;;;12.63;8.98;;;;;;;;;;5117206;27;20035;-84
2023/01/24 04:24:28;;;;;;;11.32;8.20;;;;;;;;;;5116519;27;20077;-83
2023/01/24 04:26:54;;;;;;;12.80;8.70;;;;;;;;;;5117557;27;20061;-82
2023/01/24 04:29:20;;;;;;;11.57;8.25;;;;;;;;;;5118025;27;20023;-82
2023/01/24 04:31:46;;;;;;;12.25;8.25;;;;;;;;;;5111892;27;20035;-83
2023/01/24 04:34:12;;;;;;;13.18;9.10;;;;;;;;;;5106752;27;20032;-83
2023/01/24 04:36:38;;;;;;;13.63;9.10;;;;;;;;;;5115399;27;20027;-86
2023/01/24 04:39:05;;;;;;;11.25;8.35;;;;;;;;;;5108991;27;20109;-82
2023/01/24 04:41:31;;;;;;;11.10;8.93;;;;;;;;;;5095960;27;20039;-82
2023/01/24 04:43:57;;;;;;;13.98;9.93;;;;;;;;;;5096016;28;20046;-84
2023/01/24 04:46:23;;;;;;;13.43;9.90;;;;;;;;;;5110543;27;20035;-82
2023/01/24 04:48:49;;;;;;;12.93;10.30;;;;;;;;;;5110648;27;20027;-82
2023/01/24 04:51:15;;;;;;;13.98;10.57;;;;;;;;;;5109351;27;20026;-83
2023/01/24 04:53:42;;;;;;;16.95;11.35;;;;;;;;;;5114630;28;20078;-84
2023/01/24 04:56:08;;;;;;;14.68;10.85;;;;;;;;;;5119414;28;20464;-83
2023/01/24 04:58:34;;;;;;;15.65;10.93;;;;;;;;;;5113455;28;20027;-83
2023/01/24 05:01:01;;;;;;;16.40;11.77;;;;;;;;;;5113765;28;20051;-84
2023/01/24 05:03:27;;;;;;;15.40;10.98;;;;;;;;;;5116310;28;20026;-83
2023/01/24 05:05:54;;;;;;;15.30;11.13;;;;;;;;;;5101330;28;20043;-84
2023/01/24 05:08:20;;;;;;;17.25;11.50;;;;;;;;;;5092856;28;20039;-84
2023/01/24 05:10:46;;;;;;;15.77;11.27;;;;;;;;;;5118146;28;20201;-84
2023/01/24 05:13:12;;;;;;;17.65;11.85;;;;;;;;;;5112475;28;20020;-83
2023/01/24 05:15:38;;;;;;;15.68;11.00;;;;;;;;;;5111068;28;20040;-83
2023/01/24 05:18:04;;;;;;;17.08;10.95;;;;;;;;;;5120389;28;20028;-83
2023/01/24 05:20:30;;;;;;;16.52;11.68;;;;;;;;;;5117287;28;20039;-84
2023/01/24 05:22:57;;;;;;;17.38;12.70;;;;;;;;;;5115861;28;20035;-82
2023/01/24 05:25:24;;;;;;;16.45;11.43;;;;;;;;;;5111026;28;20190;-83
2023/01/24 05:27:50;;;;;;;16.50;12.88;;;;;;;;;;5105440;28;20032;-82
2023/01/24 05:30:16;;;;;;;17.27;11.65;;;;;;;;;;5110872;28;20077;-82
2023/01/24 05:32:42;;;;;;;17.80;13.20;;;;;;;;;;5110093;27;20032;-82
2023/01/24 05:35:09;;;;;;;20.92;12.98;;;;;;;;;;5119419;27;20394;-82
2023/01/24 05:37:39;;;;;;;19.45;12.68;;;;;;;;;;5116678;27;20023;-86
2023/01/24 05:40:06;;;;;;;17.35;12.15;;;;;;;;;;5117656;27;20148;-83
2023/01/24 05:42:32;;;;;;;20.42;14.30;;;;;;;;;;5117593;27;20073;-82
2023/01/24 05:44:58;;;;;;;17.98;12.63;;;;;;;;;;5108787;27;20425;-84
2023/01/24 05:47:24;;;;;;;17.30;12.65;;;;;;;;;;5116487;27;20106;-82
2023/01/24 05:49:50;;;;;;;20.88;13.15;;;;;;;;;;5112483;27;20032;-83
2023/01/24 05:52:20;;;;;;;18.58;13.55;;;;;;;;;;5117587;27;20364;-84
2023/01/24 05:54:47;;;;;;;17.35;13.82;;;;;;;;;;5118961;27;20028;-84
2023/01/24 05:57:14;;;;;;;21.58;14.20;;;;;;;;;;5120223;27;20054;-82
2023/01/24 05:59:40;;;;;;;21.33;15.50;;;;;;;;;;5114166;27;20043;-82
2023/01/24 06:02:06;;;;;;;21.30;13.98;;;;;;;;;;5116686;27;20027;-83
2023/01/24 06:04:32;;;;;;;19.80;14.18;;;;;;;;;;5112411;27;20034;-81
2023/01/24 06:06:58;;;;;;;21.92;14.48;;;;;;;;;;5109610;27;20502;-82
2023/01/24 06:09:24;;;;;;;21.70;14.48;;;;;;;;;;5119928;27;20039;-83
2023/01/24 06:11:50;;;;;;;21.42;14.27;;;;;;;;;;5105916;27;20047;-83
2023/01/24 06:14:17;;;;;;;20.67;14.18;;;;;;;;;;5111212;28;20044;-78
2023/01/24 06:16:44;;;;;;;19.55;14.68;;;;;;;;;;5107361;27;20028;-80
2023/01/24 06:19:13;;;;;;;20.23;14.88;;;;;;;;;;5114168;27;20031;-82
2023/01/24 06:21:46;;;;;;;20.80;15.07;;;;;;;;;;5094015;28;20495;-80
2023/01/24 06:24:20;;;;;;;22.58;15.23;;;;;;;;;;5108361;27;20042;-81
2023/01/24 06:26:47;;;;;;;23.80;14.45;;;;;;;;;;5109768;27;20024;-81
2023/01/24 06:29:13;;;;;;;21.27;14.65;;;;;;;;;;5109073;28;20020;-81
2023/01/24 06:31:58;;;;;;;21.35;14.88;;;;;;;;;;5114677;28;20400;-78
2023/01/24 06:34:32;;;;;;;22.00;14.63;;;;;;;;;;5102314;28;20096;-78
2023/01/24 06:37:07;;;;;;;27.65;17.67;;;;;;;;;;5105800;28;20061;-78
2023/01/24 06:39:34;;;;;;;26.60;17.92;;;;;;;;;;5111355;28;20019;-81
2023/01/24 06:42:00;;;;;;;21.40;15.13;;;;;;;;;;5104046;27;20133;-80
2023/01/24 06:44:26;;;;;;;23.67;15.93;;;;;;;;;;5106466;28;20114;-77
2023/01/24 06:46:52;;;;;;;26.83;14.98;;;;;;;;;;5107721;28;20027;-78
2023/01/24 06:49:18;;;;;;;21.33;14.05;;;;;;;;;;5107646;28;20035;-78
2023/01/24 06:51:49;;;;;;;20.88;14.57;;;;;;;;;;5110369;28;20050;-78
2023/01/24 06:54:16;;;;;;;22.15;14.82;;;;;;;;;;5105683;28;20472;-79
2023/01/24 06:56:42;;;;;;;22.33;15.45;;;;;;;;;;5112380;28;20031;-80
2023/01/24 06:59:08;;;;;;;21.02;15.20;;;;;;;;;;5110480;28;20035;-79
2023/01/24 07:01:34;;;;;;;22.50;14.27;;;;;;;;;;5112525;28;20040;-78
2023/01/24 07:04:00;;;;;;;35.58;22.17;;;;;;;;;;5108159;27;20351;-81
2023/01/24 07:06:26;;;;;;;27.75;18.00;;;;;;;;;;5110273;27;20031;-77
2023/01/24 07:08:53;;;;;;;24.30;17.35;;;;;;;;;;5121538;27;20027;-79
2023/01/24 07:11:19;;;;;;;22.52;16.23;;;;;;;;;;5116091;27;20043;-77
2023/01/24 07:13:45;;;;;;;24.02;15.40;;;;;;;;;;5113278;27;20031;-80
2023/01/24 07:16:11;;;;;;;21.92;15.43;;;;;;;;;;5111521;27;20063;-78
2023/01/24 07:18:38;;;;;;;21.45;14.25;;;;;;;;;;5111592;27;20031;-78
2023/01/24 07:21:07;;;;;;;23.30;15.93;;;;;;;;;;5114313;27;20046;-81
2023/01/24 07:23:34;;;;;;;20.67;14.43;;;;;;;;;;5108980;27;20151;-81
2023/01/24 07:26:01;;;;;;;23.02;15.00;;;;;;;;;;5115165;27;20023;-81
2023/01/24 07:28:27;;;;;;;22.13;15.00;;;;;;;;;;5107555;27;20471;-79
2023/01/24 07:30:53;;;;;;;24.35;15.10;;;;;;;;;;5111899;28;20040;-80
2023/01/24 07:33:20;;;;;;;21.15;15.32;;;;;;;;;;5113119;28;20038;-78
2023/01/24 07:35:46;;;;;;;22.42;14.50;;;;;;;;;;5112360;28;20346;-78
2023/01/24 07:38:12;;;;;;;22.13;15.18;;;;;;;;;;5107656;28;20024;-79
2023/01/24 07:40:39;;;;;;;22.23;15.82;;;;;;;;;;5112478;28;20093;-78
2023/01/24 07:43:05;;;;;;;21.60;14.38;;;;;;;;;;5111128;28;20096;-79
2023/01/24 07:45:34;;;;;;;22.05;14.40;;;;;;;;;;5110123;28;20016;-79
2023/01/24 07:48:01;;;;;;;20.23;13.82;;;;;;;;;;5111309;28;20122;-79
2023/01/24 07:50:30;;;;;;;20.17;13.90;;;;;;;;;;5112083;28;20024;-80
2023/01/24 07:52:56;;;;;;;19.35;14.48;;;;;;;;;;5113244;28;20114;-82
2023/01/24 07:55:23;;;;;;;19.58;14.02;;;;;;;;;;5111853;28;20511;-78
2023/01/24 07:57:49;;;;;;;19.30;13.40;;;;;;;;;;5115909;27;20035;-78
2023/01/24 08:00:15;;;;;;;19.60;13.32;;;;;;;;;;5112377;27;20056;-78
2023/01/24 08:02:42;;;;;;;18.70;13.45;;;;;;;;;;5112968;27;20036;-77
2023/01/24 08:05:08;;;;;;;22.15;14.85;;;;;;;;;;5110949;27;20034;-81
2023/01/24 08:07:34;;;;;;;23.95;13.90;;;;;;;;;;5118941;27;20384;-80
2023/01/24 08:10:00;;;;;;;19.65;13.20;;;;;;;;;;5118826;27;20442;-80
2023/01/24 08:12:26;;;;;;;18.13;12.15;;;;;;;;;;5101302;27;20023;-78
2023/01/24 08:14:52;;;;;;;17.25;12.35;;;;;;;;;;5115353;27;20027;-78
2023/01/24 08:17:18;;;;;;;17.77;12.35;;;;;;;;;;5107041;27;20051;-80
2023/01/24 08:19:44;;;;;;;19.65;12.48;;;;;;;;;;5102925;27;20019;-79
2023/01/24 08:22:10;;;;;;;18.20;12.35;;;;;;;;;;5118575;27;20180;-78
2023/01/24 08:24:37;;;;;;;17.05;11.85;;;;;;;;;;5114754;27;20087;-81
2023/01/24 08:27:03;;;;;;;17.35;12.38;;;;;;;;;;5086216;27;20028;-80
2023/01/24 08:29:29;;;;;;;15.70;11.35;;;;;;;;;;5114005;27;20031;-80
2023/01/24 08:31:56;;;;;;;17.50;12.65;;;;;;;;;;5116036;27;20039;-80
2023/01/24 08:34:22;;;;;;;18.30;11.52;;;;;;;;;;5106332;27;20444;-81
2023/01/24 08:36:48;;;;;;;18.15;11.60;;;;;;;;;;5114197;27;20023;-80
2023/01/24 08:39:14;;;;;;;16.05;11.60;;;;;;;;;;5107213;27;20043;-80
2023/01/24 08:41:43;;;;;;;17.95;12.18;;;;;;;;;;5092005;28;20019;-80
2023/01/24 08:44:10;;;;;;;16.42;11.27;;;;;;;;;;5111343;27;20040;-81
2023/01/24 08:46:36;;;;;;;18.27;12.07;;;;;;;;;;5113999;27;20022;-79
2023/01/24 08:49:03;;;;;;;16.33;12.27;;;;;;;;;;5116157;27;20040;-81
2023/01/24 08:51:29;;;;;;;16.75;11.52;;;;;;;;;;5110808;27;20172;-81
2023/01/24 08:53:55;;;;;;;16.33;11.95;;;;;;;;;;5098697;28;20035;-81
2023/01/24 08:56:21;;;;;;;17.70;12.05;;;;;;;;;;5109203;28;20046;-81
2023/01/24 08:58:47;;;;;;;17.70;10.45;;;;;;;;;;5112835;28;20070;-82
2023/01/24 09:01:13;;;;;;;15.55;10.15;;;;;;;;;;5095330;28;20047;-82
2023/01/24 09:03:40;;;;;;;15.18;10.43;;;;;;;;;;5097574;28;20019;-82
2023/01/24 09:06:06;;;;;;;16.17;9.88;;;;;;;;;;5091875;28;20690;-83
2023/01/24 09:08:32;;;;;;;18.38;10.52;;;;;;;;;;5099704;28;20358;-82
2023/01/24 09:10:59;;;;;;;16.77;10.27;;;;;;;;;;5092103;28;20036;-83
2023/01/24 09:13:25;;;;;;;17.77;11.77;;;;;;;;;;5093914;28;20031;-83
2023/01/24 09:15:51;;;;;;;14.93;10.25;;;;;;;;;;5094271;28;20066;-83
2023/01/24 09:18:17;;;;;;;15.95;10.48;;;;;;;;;;5091117;28;20020;-84
2023/01/24 09:20:43;;;;;;;14.70;10.55;;;;;;;;;;5095741;28;20031;-83
2023/01/24 09:23:11;;;;;;;16.35;10.10;;;;;;;;;;5108683;28;20015;-82
2023/01/24 09:25:37;;;;;;;17.58;10.35;;;;;;;;;;5110575;28;20456;-83
2023/01/24 09:28:03;;;;;;;14.90;10.00;;;;;;;;;;5094227;28;20418;-85
2023/01/24 09:30:30;;;;;;;14.65;11.25;;;;;;;;;;5094470;28;20451;-83
2023/01/24 09:32:56;;;;;;;15.00;10.50;;;;;;;;;;5091551;28;20032;-84
2023/01/24 09:35:22;;;;;;;15.05;9.77;;;;;;;;;;5095079;28;20066;-83
2023/01/24 09:37:48;;;;;;;13.38;9.82;;;;;;;;;;5091418;28;20023;-83
2023/01/24 09:40:19;;;;;;;17.83;10.75;;;;;;;;;;5094296;28;20508;-82
2023/01/24 09:42:51;;;;;;;15.27;10.63;;;;;;;;;;5093970;28;20028;-83
2023/01/24 09:45:29;;;;;;;13.52;9.80;;;;;;;;;;5094810;28;20012;-83
2023/01/24 09:48:00;;;;;;;14.93;9.80;;;;;;;;;;5083541;28;20063;-83
2023/01/24 09:50:35;;;;;;;16.55;10.25;;;;;;;;;;5095810;28;20036;-83
2023/01/24 09:53:02;;;;;;;14.27;9.82;;;;;;;;;;5083701;28;20044;-83
2023/01/24 09:55:30;;;;;;;16.80;10.25;;;;;;;;;;5094801;28;20334;-82
2023/01/24 09:57:59;;;;;;;14.95;9.80;;;;;;;;;;5094477;28;20028;-82
2023/01/24 10:00:27;;;;;;;14.82;10.20;;;;;;;;;;5104230;28;20047;-81
2023/01/24 10:02:57;;;;;;;16.95;10.23;;;;;;;;;;5112612;28;20016;-82
2023/01/24 10:05:26;;;;;;;16.02;10.40;;;;;;;;;;5095024;28;20464;-82
2023/01/24 10:07:52;;;;;;;14.77;9.85;;;;;;;;;;5116716;27;20024;-83
2023/01/24 10:10:31;;;;;;;16.67;10.07;;;;;;;;;;5113754;28;20028;-81
2023/01/24 10:13:09;;;;;;;13.88;9.90;;;;;;;;;;5112747;28;20028;-84
2023/01/24 10:15:38;;;;;;;14.63;10.15;;;;;;;;;;5114331;28;20012;-82
2023/01/24 10:18:23;;;;;;;14.73;10.25;;;;;;;;;;5112486;28;20023;-84
2023/01/24 10:20:49;;;;;;;12.57;9.10;;;;;;;;;;5113103;28;20469;-81
2023/01/24 10:23:15;;;;;;;13.88;10.00;;;;;;;;;;5113605;28;20482;-82
2023/01/24 10:25:41;;;;;;;16.20;9.82;;;;;;;;;;5114226;28;20467;-81
2023/01/24 10:28:14;;;;;;;15.48;10.18;;;;;;;;;;5110139;28;20031;-82
2023/01/24 10:33:48;;;;;;;15.30;10.10;;;;;;;;;;5094364;28;20035;-81
2023/01/24 10:36:22;;;;;;;16.00;10.30;;;;;;;;;;5104947;27;20060;-79
2023/01/24 10:38:48;;;;;;;14.23;10.30;;;;;;;;;;5102545;27;20419;-83
2023/01/24 10:41:16;;;;;;;14.50;10.52;;;;;;;;;;5119902;27;20055;-84
2023/01/24 10:43:45;;;;;;;14.00;9.40;;;;;;;;;;5088674;28;20054;-82
2023/01/24 10:46:30;;;;;;;15.10;10.48;;;;;;;;;;5105126;28;20027;-82
2023/01/24 10:48:57;;;;;;;15.38;10.55;;;;;;;;;;5114355;27;20020;-81
2023/01/24 10:51:24;;;;;;;14.52;9.27;;;;;;;;;;5120911;27;20032;-84
2023/01/24 10:53:50;;;;;;;17.67;9.73;;;;;;;;;;5119686;27;20487;-85
2023/01/24 10:56:18;;;;;;;14.98;9.73;;;;;;;;;;5117398;27;20069;-84
2023/01/24 10:58:55;;;;;;;38.70;20.15;;;;;;;;;;5113534;27;20085;-82
2023/01/24 11:01:22;;;;;;;46.78;25.85;;;;;;;;;;5104097;28;20130;-81
2023/01/24 11:03:49;;;;;;;32.63;19.77;;;;;;;;;;5118422;28;20027;-88
2023/01/24 11:06:24;;;;;;;14.45;10.23;;;;;;;;;;5095255;28;20032;-85
2023/01/24 11:08:55;;;;;;;14.95;10.30;;;;;;;;;;5104071;27;20503;-87
2023/01/24 11:11:30;;;;;;;17.10;11.38;;;;;;;;;;5117555;27;20039;-83
2023/01/24 11:14:00;;;;;;;17.40;10.02;;;;;;;;;;5095171;28;20377;-82
2023/01/24 11:16:33;;;;;;;13.68;9.32;;;;;;;;;;5100954;27;20191;-83
2023/01/24 11:19:00;;;;;;;16.83;10.00;;;;;;;;;;5094391;27;20418;-83
2023/01/24 11:21:27;;;;;;;19.50;11.07;;;;;;;;;;5084880;28;20114;-81
2023/01/24 11:24:08;;;;;;;17.27;10.60;;;;;;;;;;5118967;27;20027;-81
2023/01/24 11:26:52;;;;;;;15.25;10.38;;;;;;;;;;5109062;27;20072;-80
2023/01/24 11:29:18;;;;;;;16.15;10.35;;;;;;;;;;5104119;27;20722;-80
2023/01/24 11:31:45;;;;;;;13.80;9.68;;;;;;;;;;5117994;27;20050;-81
2023/01/24 11:34:17;;;;;;;15.75;10.80;;;;;;;;;;5104262;27;20066;-82
2023/01/24 11:36:50;;;;;;;14.35;10.13;;;;;;;;;;5107295;27;20019;-81
2023/01/24 11:39:26;;;;;;;14.38;10.13;;;;;;;;;;5105062;27;20035;-79
2023/01/24 11:41:55;;;;;;;14.65;9.85;;;;;;;;;;5104870;27;20498;-82
2023/01/24 11:44:24;;;;;;;14.10;9.27;;;;;;;;;;5098131;27;20377;-81
2023/01/24 11:46:59;;;;;;;16.42;10.68;;;;;;;;;;5097556;27;20488;-82
2023/01/24 11:49:46;;;;;;;19.92;10.68;;;;;;;;;;5129604;27;20053;-77
2023/01/24 11:52:24;;;;;;;15.60;10.20;;;;;;;;;;5102570;27;20496;-82
2023/01/24 11:55:09;;;;;;;15.35;9.45;;;;;;;;;;5105308;27;20039;-86
2023/01/24 11:57:43;;;;;;;16.70;9.82;;;;;;;;;;5117112;27;20108;-82
2023/01/24 12:00:19;;;;;;;14.57;9.27;;;;;;;;;;5116403;27;20134;-82
2023/01/24 12:02:55;;;;;;;14.70;10.63;;;;;;;;;;5114676;27;20036;-86
2023/01/24 12:05:28;;;;;;;16.80;10.43;;;;;;;;;;5115943;27;20040;-84
2023/01/24 12:07:57;;;;;;;15.00;9.52;;;;;;;;;;5115428;27;20023;-86
2023/01/24 12:10:36;;;;;;;16.17;10.48;;;;;;;;;;5117709;27;20035;-81
2023/01/24 12:13:17;;;;;;;25.90;15.55;;;;;;;;;;5124929;27;20027;-87
2023/01/24 12:15:57;;;;;;;28.13;16.25;;;;;;;;;;5118884;27;20024;-83
2023/01/24 12:18:32;;;;;;;14.63;9.57;;;;;;;;;;5129712;27;20240;-81
2023/01/24 12:21:00;;;;;;;17.10;9.57;;;;;;;;;;5114329;27;20471;-81
2023/01/24 12:23:33;;;;;;;14.23;9.48;;;;;;;;;;5129290;27;21529;-81
2023/01/24 12:26:03;;;;;;;16.80;9.30;;;;;;;;;;5096641;27;20357;-81
2023/01/24 12:28:34;;;;;;;14.60;9.80;;;;;;;;;;5105553;27;20589;-81
2023/01/24 12:31:02;;;;;;;12.88;9.55;;;;;;;;;;5111008;27;20027;-82
2023/01/24 12:33:46;;;;;;;12.32;9.60;;;;;;;;;;5098418;27;20475;-82
2023/01/24 12:36:31;;;;;;;16.17;9.75;;;;;;;;;;5116156;27;20026;-82
2023/01/24 12:39:02;;;;;;;15.20;9.70;;;;;;;;;;5117380;27;20032;-81
2023/01/24 12:41:35;;;;;;;14.93;9.82;;;;;;;;;;5117904;27;20431;-82
2023/01/24 12:44:10;;;;;;;13.10;9.10;;;;;;;;;;5121925;27;20036;-81
2023/01/24 12:46:39;;;;;;;12.30;9.00;;;;;;;;;;5116647;27;20023;-81
2023/01/24 12:49:24;;;;;;;13.73;8.98;;;;;;;;;;5106204;28;20189;-81
2023/01/24 12:52:14;;;;;;;11.82;8.98;;;;;;;;;;5118309;27;20031;-81
2023/01/24 12:54:47;;;;;;;10.90;8.60;;;;;;;;;;5121878;28;20075;-82
2023/01/24 12:57:13;;;;;;;13.80;10.13;;;;;;;;;;5120901;28;20036;-81
2023/01/24 12:59:39;;;;;;;14.10;10.40;;;;;;;;;;5120408;28;20055;-82
2023/01/24 13:02:05;;;;;;;12.85;9.75;;;;;;;;;;5106144;28;20055;-81
2023/01/24 13:04:37;;;;;;;14.50;9.68;;;;;;;;;;5120213;28;20066;-82
2023/01/24 13:07:03;;;;;;;16.35;11.15;;;;;;;;;;5122894;28;20027;-82
2023/01/24 13:09:29;;;;;;;12.55;9.15;;;;;;;;;;5125557;28;20060;-82
2023/01/24 13:11:56;;;;;;;14.13;9.52;;;;;;;;;;5106451;28;20389;-82
2023/01/24 13:14:35;;;;;;;14.70;9.57;;;;;;;;;;5119630;28;20087;-85
2023/01/24 13:17:30;;;;;;;18.63;10.02;;;;;;;;;;5106351;28;20047;-81
2023/01/24 13:20:16;;;;;;;13.20;9.35;;;;;;;;;;5091638;28;20047;-85
2023/01/24 13:22:54;;;;;;;14.50;9.55;;;;;;;;;;5116717;28;20046;-86
2023/01/24 13:25:25;;;;;;;12.85;10.10;;;;;;;;;;5118370;28;20077;-82
2023/01/24 13:27:57;;;;;;;15.50;10.05;;;;;;;;;;5096753;28;20065;-86
2023/01/24 13:30:32;;;;;;;14.27;9.07;;;;;;;;;;5118658;28;20069;-87
2023/01/24 13:33:00;;;;;;;18.17;10.32;;;;;;;;;;5107364;28;20038;-87
2023/01/24 13:35:27;;;;;;;15.13;11.25;;;;;;;;;;5111604;28;20028;-85
2023/01/24 13:38:03;;;;;;;13.45;9.10;;;;;;;;;;5095869;28;20380;-83
2023/01/24 13:40:34;;;;;;;15.85;11.50;;;;;;;;;;5112650;28;20370;-85
2023/01/24 13:43:01;;;;;;;15.90;10.48;;;;;;;;;;5111688;28;20464;-85
2023/01/24 13:45:30;;;;;;;13.38;9.95;;;;;;;;;;5110648;28;20416;-86
2023/01/24 13:48:00;;;;;;;13.55;10.00;;;;;;;;;;5112920;28;20015;-85
2023/01/24 13:50:28;;;;;;;14.52;9.85;;;;;;;;;;5112526;28;20097;-84
2023/01/24 13:52:55;;;;;;;13.10;9.55;;;;;;;;;;5112886;28;20457;-85
2023/01/24 13:55:24;;;;;;;15.25;10.23;;;;;;;;;;5121302;28;20034;-84
2023/01/24 13:58:12;;;;;;;15.68;9.82;;;;;;;;;;5101180;28;20495;-85
2023/01/24 14:00:41;;;;;;;13.68;9.73;;;;;;;;;;5100671;28;20060;-85
2023/01/24 14:03:13;;;;;;;13.38;9.40;;;;;;;;;;5115691;28;20084;-84
2023/01/24 14:05:44;;;;;;;12.15;8.43;;;;;;;;;;5110237;28;20088;-85
2023/01/24 14:08:22;;;;;;;15.50;9.73;;;;;;;;;;5114625;28;20030;-85
2023/01/24 14:10:53;;;;;;;13.82;10.13;;;;;;;;;;5115695;28;20532;-85
2023/01/24 14:13:38;;;;;;;15.57;10.32;;;;;;;;;;5109281;28;20490;-85
2023/01/24 14:16:04;;;;;;;13.07;9.35;;;;;;;;;;5092812;28;20032;-85
2023/01/24 14:18:50;;;;;;;15.20;10.25;;;;;;;;;;5102994;28;20052;-86
2023/01/24 14:21:20;;;;;;;13.60;9.68;;;;;;;;;;5111961;28;20042;-84
2023/01/24 14:23:49;;;;;;;14.15;9.65;;;;;;;;;;5121372;27;20027;-85
2023/01/24 14:26:17;;;;;;;20.52;11.75;;;;;;;;;;5116345;28;20035;-83
2023/01/24 14:28:46;;;;;;;14.35;10.48;;;;;;;;;;5115498;28;20020;-85
2023/01/24 14:31:18;;;;;;;12.32;9.43;;;;;;;;;;5114251;27;20063;-86
2023/01/24 14:33:46;;;;;;;13.93;9.95;;;;;;;;;;5114269;27;20020;-85
2023/01/24 14:36:31;;;;;;;15.07;10.23;;;;;;;;;;5111385;28;20464;-85
2023/01/24 14:39:13;;;;;;;13.90;9.15;;;;;;;;;;5113537;28;20032;-84
2023/01/24 14:41:40;;;;;;;15.73;11.48;;;;;;;;;;5114288;28;20035;-85
2023/01/24 14:44:17;;;;;;;15.45;10.48;;;;;;;;;;5115034;28;20035;-85
2023/01/24 14:46:51;;;;;;;15.85;10.63;;;;;;;;;;5116606;28;20016;-86
2023/01/24 14:49:25;;;;;;;15.80;10.45;;;;;;;;;;5118554;28;20042;-83
2023/01/24 14:51:51;;;;;;;16.20;10.60;;;;;;;;;;5117292;28;20176;-86
2023/01/24 14:54:22;;;;;;;14.52;10.38;;;;;;;;;;5112637;28;20031;-84
2023/01/24 14:56:48;;;;;;;15.90;11.18;;;;;;;;;;5094884;27;21197;-84
2023/01/24 14:59:17;;;;;;;14.95;10.95;;;;;;;;;;5113639;28;20050;-86
2023/01/24 15:01:45;;;;;;;16.30;9.77;;;;;;;;;;5114348;28;20087;-85
2023/01/24 15:04:25;;;;;;;15.02;11.13;;;;;;;;;;5112658;28;20450;-87
2023/01/24 15:07:04;;;;;;;17.75;11.75;;;;;;;;;;5116084;28;20087;-87
2023/01/24 15:09:31;;;;;;;14.95;10.85;;;;;;;;;;5101489;27;20023;-85
2023/01/24 15:11:57;;;;;;;16.33;11.80;;;;;;;;;;5122801;27;20031;-84
2023/01/24 15:14:23;;;;;;;15.45;11.20;;;;;;;;;;5096939;28;20072;-81
2023/01/24 15:16:52;;;;;;;17.30;10.63;;;;;;;;;;5113517;28;20031;-81